createdAt,value
2022-12-03T00:01:07.786Z,0.20
2022-12-03T00:06:34.329Z,0.32
2022-12-03T00:11:55.478Z,0.30
2022-12-03T00:17:17.576Z,0.32
2022-12-03T00:22:38.546Z,0.26
2022-12-03T00:27:59.284Z,0.28
2022-12-03T00:33:20.856Z,0.29
2022-12-03T00:38:41.685Z,0.36
2022-12-03T00:44:03.203Z,0.41
2022-12-03T00:49:23.637Z,0.48
2022-12-03T00:54:45.447Z,0.52
2022-12-03T01:00:06.441Z,0.51
2022-12-03T01:05:28.041Z,0.56
2022-12-03T01:10:48.919Z,0.56
2022-12-03T01:16:09.970Z,0.53
2022-12-03T01:21:30.388Z,0.47
2022-12-03T01:26:51.574Z,0.43
2022-12-03T01:32:19.722Z,0.64
2022-12-03T01:37:40.366Z,0.72
2022-12-03T01:43:01.338Z,0.69
2022-12-03T01:48:22.573Z,0.67
2022-12-03T01:53:44.389Z,0.70
2022-12-03T01:59:05.135Z,0.69
2022-12-03T02:04:26.322Z,0.77
2022-12-03T02:09:47.206Z,0.72
2022-12-03T02:15:09.190Z,0.70
2022-12-03T02:20:31.211Z,0.79
2022-12-03T02:25:52.128Z,0.73
2022-12-03T02:31:13.057Z,0.67
2022-12-03T02:36:34.343Z,0.66
2022-12-03T02:42:13.729Z,0.57
2022-12-03T02:47:36.593Z,0.67
2022-12-03T02:52:58.360Z,0.70
2022-12-03T02:58:19.663Z,0.72
2022-12-03T03:03:40.597Z,0.72
2022-12-03T03:09:01.129Z,0.89
2022-12-03T03:14:22.243Z,0.95
2022-12-03T03:19:42.751Z,1.01
2022-12-03T03:25:04.642Z,0.97
2022-12-03T03:30:25.245Z,0.85
2022-12-03T03:35:47.576Z,0.88
2022-12-03T03:41:09.315Z,0.98
2022-12-03T03:46:30.085Z,1.14
2022-12-03T03:51:51.389Z,1.30
2022-12-03T03:57:12.252Z,1.40
2022-12-03T04:02:33.316Z,1.56
2022-12-03T04:07:53.715Z,1.58
2022-12-03T04:13:14.432Z,1.47
2022-12-03T04:18:44.448Z,1.43
2022-12-03T04:24:06.073Z,1.47
2022-12-03T04:29:26.895Z,1.63
2022-12-03T04:35:11.045Z,1.73
2022-12-03T04:41:04.087Z,1.73
2022-12-03T04:46:24.988Z,1.75
2022-12-03T04:51:45.574Z,1.79
2022-12-03T04:57:06.792Z,1.60
2022-12-03T05:02:27.374Z,1.51
2022-12-03T05:07:48.359Z,1.41
2022-12-03T05:13:09.167Z,1.37
2022-12-03T05:18:29.866Z,1.32
2022-12-03T05:23:50.799Z,1.30
2022-12-03T05:29:11.483Z,1.28
2022-12-03T05:34:32.349Z,1.29
2022-12-03T05:39:53.418Z,1.43
2022-12-03T05:45:14.274Z,1.61
2022-12-03T05:50:36.286Z,1.65
2022-12-03T05:56:07.965Z,1.67
2022-12-03T06:01:28.648Z,1.73
2022-12-03T06:06:49.984Z,1.66
2022-12-03T06:12:10.435Z,1.50
2022-12-03T06:17:31.281Z,1.52
2022-12-03T06:22:52.521Z,1.46
2022-12-03T06:28:12.977Z,1.42
2022-12-03T06:33:33.851Z,1.32
2022-12-03T06:38:54.750Z,1.27
2022-12-03T06:44:15.675Z,1.16
2022-12-03T06:49:36.711Z,1.09
2022-12-03T06:54:57.550Z,1.09
2022-12-03T07:00:18.752Z,1.08
2022-12-03T07:05:39.245Z,1.05
2022-12-03T07:11:00.185Z,1.01
2022-12-03T07:16:21.127Z,1.06
2022-12-03T07:21:41.895Z,1.10
2022-12-03T07:27:02.481Z,1.25
2022-12-03T07:32:23.155Z,1.36
2022-12-03T07:37:43.885Z,1.57
2022-12-03T07:43:05.108Z,1.73
2022-12-03T07:48:25.873Z,1.88
2022-12-03T07:53:46.828Z,2.01
2022-12-03T07:59:07.548Z,2.16
2022-12-03T08:04:28.699Z,2.27
2022-12-03T08:09:49.677Z,2.35
2022-12-03T08:15:13.928Z,2.10
2022-12-03T08:20:37.750Z,2.13
2022-12-03T08:26:02.175Z,2.23
2022-12-03T08:31:32.436Z,2.05
2022-12-03T08:37:02.058Z,2.02
2022-12-03T08:42:42.281Z,2.05
2022-12-03T08:48:05.941Z,1.82
2022-12-03T08:53:31.388Z,1.89
2022-12-03T08:58:53.992Z,1.87
2022-12-03T09:04:14.540Z,1.96
2022-12-03T09:09:35.863Z,2.18
2022-12-03T09:14:57.054Z,2.08
2022-12-03T09:20:18.113Z,2.26
2022-12-03T09:25:38.794Z,2.16
2022-12-03T09:30:59.646Z,2.24
2022-12-03T09:36:20.626Z,2.16
2022-12-03T09:41:41.197Z,2.19
2022-12-03T09:47:02.691Z,2.16
2022-12-03T09:52:28.101Z,2.21
2022-12-03T09:57:48.874Z,2.22
2022-12-03T10:03:14.032Z,2.23
2022-12-03T10:08:34.850Z,2.32
2022-12-03T10:13:56.791Z,2.42
2022-12-03T10:19:21.262Z,2.55
2022-12-03T10:24:41.905Z,2.63
2022-12-03T10:30:04.553Z,2.93
2022-12-03T10:35:35.844Z,2.74
2022-12-03T10:40:56.565Z,2.58
2022-12-03T10:46:18.808Z,2.47
2022-12-03T10:51:39.769Z,2.42
2022-12-03T10:57:01.812Z,2.40
2022-12-03T11:02:24.299Z,2.62
2022-12-03T11:07:45.265Z,2.61
2022-12-03T11:13:24.756Z,2.81
2022-12-03T11:18:54.839Z,3.80
2022-12-03T11:24:18.444Z,3.96
2022-12-03T11:29:59.462Z,3.63
2022-12-03T11:35:23.144Z,3.37
2022-12-03T11:41:03.883Z,3.35
2022-12-03T11:46:27.740Z,3.15
2022-12-03T11:51:49.016Z,2.82
2022-12-03T11:57:43.425Z,2.87
2022-12-03T12:03:04.105Z,2.89
2022-12-03T12:08:24.864Z,2.90
2022-12-03T12:13:59.368Z,2.84
2022-12-03T12:19:29.303Z,2.95
2022-12-03T12:24:55.074Z,2.99
2022-12-03T12:30:17.514Z,2.87
2022-12-03T12:35:38.338Z,4.43
2022-12-03T12:41:02.478Z,4.11
2022-12-03T12:46:47.196Z,3.87
2022-12-03T12:52:06.030Z,3.56
2022-12-03T12:57:26.846Z,3.38
2022-12-03T13:02:54.619Z,3.38
2022-12-03T13:08:23.761Z,3.27
2022-12-03T13:13:44.747Z,3.10
2022-12-03T13:19:13.222Z,2.96
2022-12-03T13:24:39.615Z,3.19
2022-12-03T13:30:08.966Z,3.56
2022-12-03T13:35:35.308Z,3.22
2022-12-03T13:41:01.407Z,2.97
2022-12-03T13:46:22.178Z,2.96
2022-12-03T13:51:44.286Z,2.82
2022-12-03T13:57:08.619Z,2.78
2022-12-03T14:02:29.312Z,3.13
2022-12-03T14:07:50.097Z,2.95
2022-12-03T14:13:10.831Z,2.90
2022-12-03T14:18:31.902Z,2.82
2022-12-03T14:23:52.459Z,2.63
2022-12-03T14:29:13.273Z,2.40
2022-12-03T14:34:34.088Z,2.32
2022-12-03T14:39:55.608Z,2.29
2022-12-03T14:45:16.292Z,2.43
2022-12-03T14:50:36.959Z,2.51
2022-12-03T14:55:59.128Z,2.52
2022-12-03T15:01:20.167Z,2.42
2022-12-03T15:06:40.971Z,2.52
2022-12-03T15:12:01.800Z,2.37
2022-12-03T15:17:30.900Z,2.18
2022-12-03T15:22:52.053Z,2.11
2022-12-03T15:28:13.074Z,2.07
2022-12-03T15:33:34.027Z,2.15
2022-12-03T15:38:54.741Z,2.18
2022-12-03T15:44:15.769Z,2.24
2022-12-03T15:49:36.632Z,2.33
2022-12-03T15:54:57.559Z,2.36
2022-12-03T16:00:18.159Z,2.38
2022-12-03T16:05:41.043Z,2.34
2022-12-03T16:11:01.602Z,2.38
2022-12-03T16:16:22.683Z,2.32
2022-12-03T16:21:43.312Z,2.27
2022-12-03T16:27:04.651Z,2.24
2022-12-03T16:32:25.342Z,2.29
2022-12-03T16:37:45.832Z,2.34
2022-12-03T16:43:08.517Z,2.31
2022-12-03T16:48:29.902Z,2.38
2022-12-03T16:53:50.664Z,2.42
2022-12-03T16:59:11.416Z,2.49
2022-12-03T17:04:32.106Z,2.42
2022-12-03T17:09:52.907Z,2.47
2022-12-03T17:15:14.202Z,2.55
2022-12-03T17:20:35.723Z,2.52
2022-12-03T17:25:56.498Z,2.51
2022-12-03T17:31:17.872Z,2.41
2022-12-03T17:42:22.469Z,2.44
2022-12-03T18:46:02.066Z,2.41
2022-12-03T18:51:24.760Z,2.40
2022-12-03T18:56:45.706Z,2.46
2022-12-03T19:02:07.863Z,2.49
2022-12-03T19:07:28.592Z,2.50
2022-12-03T19:12:49.550Z,2.69
2022-12-03T19:18:10.455Z,2.78
2022-12-03T19:23:31.208Z,2.73
2022-12-03T19:28:53.626Z,2.70
2022-12-03T19:34:14.653Z,2.88
2022-12-03T19:39:35.260Z,2.70
2022-12-03T19:44:56.201Z,2.72
2022-12-03T19:50:22.508Z,2.72
2022-12-03T19:55:44.494Z,2.77
2022-12-03T20:01:19.102Z,3.37
2022-12-03T20:06:39.761Z,3.14
2022-12-03T20:12:00.585Z,2.97
2022-12-03T20:17:21.779Z,2.79
2022-12-03T20:22:42.746Z,2.79
2022-12-03T20:28:03.543Z,2.71
2022-12-03T20:33:24.436Z,2.54
2022-12-03T20:38:45.330Z,2.46
2022-12-03T20:44:07.922Z,2.47
2022-12-03T20:49:28.937Z,2.52
2022-12-03T20:54:49.713Z,2.46
2022-12-03T21:00:10.490Z,2.39
2022-12-03T21:05:31.070Z,2.51
2022-12-03T21:10:51.797Z,2.46
2022-12-03T21:16:16.872Z,2.32
2022-12-03T21:21:37.666Z,2.38
2022-12-03T21:26:59.802Z,2.52
2022-12-03T21:32:20.302Z,2.46
2022-12-03T21:37:41.057Z,2.54
2022-12-03T21:43:01.899Z,2.66
2022-12-03T21:48:22.864Z,2.69
2022-12-03T21:53:43.699Z,2.77
2022-12-03T21:59:04.296Z,2.86
2022-12-03T22:04:24.875Z,2.94
2022-12-03T22:09:45.626Z,2.95
2022-12-03T22:15:06.724Z,2.95
2022-12-03T22:20:29.372Z,2.95
2022-12-03T22:26:00.900Z,3.03
2022-12-03T22:31:21.773Z,3.11
2022-12-03T22:36:42.644Z,3.13
2022-12-03T22:42:03.467Z,3.19
2022-12-03T22:47:24.336Z,3.27
2022-12-03T22:52:45.091Z,3.15
2022-12-03T22:58:06.425Z,3.07
2022-12-03T23:03:27.215Z,3.09
2022-12-03T23:08:48.583Z,3.01
2022-12-03T23:14:09.201Z,2.92
2022-12-03T23:19:30.200Z,2.89
2022-12-03T23:24:50.685Z,2.89
2022-12-03T23:30:12.124Z,2.90
2022-12-03T23:35:33.023Z,2.92
2022-12-03T23:40:53.991Z,2.88
2022-12-03T23:46:19.388Z,2.99
2022-12-03T23:51:40.310Z,2.93
2022-12-03T23:57:01.092Z,3.01
